LFRC/CER METAR and TAF weather

Enter ICAO airport designator
Station Type Date Time Source
LFRC METAR 2020/07/11 16:30 UTC NOAA

LFRC 111630Z AUTO 31005KT 280V360 CAVOK 17/09 Q1028 NOSIG


Station Type Date Time Source
LFRC Decoded METAR 2020/07/11 16:30 UTC NOAA

Cherbourg / Maupertus, France (LFRC) 49-39N 001-28W 139M
Jul 11, 2020 - 12:30 PM EDT / 2020.07.11 1630 UTC
Wind: from the NW (310 degrees) at 6 MPH (5 KT) (direction variable):0
Visibility: greater than 7 mile(s):0
Temperature: 62 F (17 C)
Dew Point: 48 F (9 C)
Relative Humidity: 59%
Pressure (altimeter): 30.36 in. Hg (1028 hPa)
ob: LFRC 111630Z AUTO 31005KT 280V360 CAVOK 17/09 Q1028 NOSIG
cycle: 16

Station Type Date Time Source
LFRC TAF 2008/10/12 17:07 UTC NOAA

TAF
AMD LFRC 121707Z 121721 CNL

Example: see airport list